createdAt,value
2022-12-09T00:02:04.801Z,100014.55
2022-12-09T00:04:31.531Z,100015.98
2022-12-09T00:06:58.005Z,100016.69
2022-12-09T00:09:24.641Z,100014.01
2022-12-09T00:11:52.862Z,100015.45
2022-12-09T00:14:19.396Z,100019.99
2022-12-09T00:16:46.116Z,100024.29
2022-12-09T00:19:12.652Z,100031.40
2022-12-09T00:21:39.110Z,100032.09
2022-12-09T00:24:07.672Z,100034.15
2022-12-09T00:26:34.574Z,100033.66
2022-12-09T00:29:01.735Z,100032.23
2022-12-09T00:31:34.192Z,100037.88
2022-12-09T00:34:03.571Z,100036.55
2022-12-09T00:36:30.332Z,100036.95
2022-12-09T00:38:58.561Z,100035.65
2022-12-09T00:41:26.196Z,100039.73
2022-12-09T00:43:52.758Z,100043.66
2022-12-09T00:46:19.615Z,100042.79
2022-12-09T00:48:47.125Z,100043.85
2022-12-09T00:51:19.601Z,100045.39
2022-12-09T00:53:47.399Z,100042.46
2022-12-09T00:56:14.004Z,100043.94
2022-12-09T00:58:40.515Z,100041.07
2022-12-09T01:01:07.240Z,100040.21
2022-12-09T01:03:34.172Z,100039.08
2022-12-09T01:06:01.157Z,100038.50
2022-12-09T01:08:27.929Z,100040.98
2022-12-09T01:10:54.545Z,100042.91
2022-12-09T01:13:21.078Z,100043.66
2022-12-09T01:15:47.618Z,100048.44
2022-12-09T01:18:14.338Z,100049.39
2022-12-09T01:20:41.246Z,100052.91
2022-12-09T01:23:07.937Z,100051.35
2022-12-09T01:25:34.392Z,100048.17
2022-12-09T01:28:01.013Z,100048.88
2022-12-09T01:30:27.739Z,100047.77
2022-12-09T01:32:54.518Z,100048.64
2022-12-09T01:35:21.261Z,100053.89
2022-12-09T01:37:47.951Z,100056.44
2022-12-09T01:40:17.061Z,100061.84
2022-12-09T01:42:44.207Z,100056.22
2022-12-09T01:45:19.862Z,100057.38
2022-12-09T01:47:57.826Z,100054.42
2022-12-09T01:50:26.075Z,100054.46
2022-12-09T01:52:53.042Z,100052.95
2022-12-09T01:55:19.686Z,100052.65
2022-12-09T01:57:47.847Z,100051.23
2022-12-09T02:00:15.061Z,100046.62
2022-12-09T02:02:45.030Z,100047.61
2022-12-09T02:05:12.287Z,100045.70
2022-12-09T02:07:38.880Z,100044.16
2022-12-09T02:10:11.516Z,100039.38
2022-12-09T02:12:53.237Z,100036.71
2022-12-09T02:15:24.306Z,100033.04
2022-12-09T02:18:01.294Z,100031.83
2022-12-09T02:20:39.804Z,100032.38
2022-12-09T02:23:15.739Z,100027.91
2022-12-09T02:25:55.632Z,100025.34
2022-12-09T02:28:41.616Z,100023.48
2022-12-09T02:31:34.619Z,100019.23
2022-12-09T02:34:18.114Z,100020.70
2022-12-09T02:36:54.678Z,100018.46
2022-12-09T02:39:38.292Z,100025.36
2022-12-09T02:42:08.325Z,100026.48
2022-12-09T02:44:37.923Z,100027.22
2022-12-09T02:47:06.703Z,100030.91
2022-12-09T02:49:34.995Z,100028.09
2022-12-09T02:52:04.268Z,100031.27
2022-12-09T02:54:34.383Z,100029.45
2022-12-09T02:57:13.387Z,100031.15
2022-12-09T02:59:40.026Z,100028.91
2022-12-09T03:02:26.302Z,100024.52
2022-12-09T03:05:05.654Z,100023.05
2022-12-09T03:07:55.885Z,100018.34
2022-12-09T03:10:32.815Z,100013.31
2022-12-09T03:13:07.037Z,100012.80
2022-12-09T03:15:37.382Z,100012.65
2022-12-09T03:18:09.269Z,100010.00
2022-12-09T03:20:40.178Z,100008.05
2022-12-09T03:23:09.888Z,100010.11
2022-12-09T03:25:43.041Z,100006.47
2022-12-09T03:28:24.519Z,100003.05
2022-12-09T03:30:54.532Z,99998.93
2022-12-09T03:33:23.625Z,99999.02
2022-12-09T03:35:58.234Z,100000.99
2022-12-09T03:38:31.060Z,99997.95
2022-12-09T03:41:03.441Z,99999.40
2022-12-09T03:43:34.823Z,99997.44
2022-12-09T03:46:01.723Z,99999.59
2022-12-09T03:48:28.537Z,99999.73
2022-12-09T03:51:11.126Z,99996.60
2022-12-09T03:53:51.579Z,99993.00
2022-12-09T03:56:22.981Z,99989.38
2022-12-09T03:58:53.818Z,99990.98
2022-12-09T04:01:23.936Z,99992.55
2022-12-09T04:03:53.695Z,99991.72
2022-12-09T04:06:20.825Z,99990.49
2022-12-09T04:08:47.399Z,99991.75
2022-12-09T04:11:14.311Z,99990.79
2022-12-09T04:13:41.225Z,99987.98
2022-12-09T04:16:07.938Z,99986.33
2022-12-09T04:18:34.756Z,99984.64
2022-12-09T04:21:06.076Z,99981.88
2022-12-09T04:23:35.564Z,99979.36
2022-12-09T04:26:04.950Z,99983.73
2022-12-09T04:28:31.800Z,99982.37
2022-12-09T04:30:59.408Z,99977.94
2022-12-09T04:33:26.999Z,99979.23
2022-12-09T04:35:53.589Z,99977.89
2022-12-09T04:38:20.244Z,99974.50
2022-12-09T04:40:46.700Z,99975.01
2022-12-09T04:43:13.379Z,99976.30
2022-12-09T04:45:39.797Z,99974.95
2022-12-09T04:48:06.870Z,99975.89
2022-12-09T04:50:33.658Z,99976.69
2022-12-09T04:53:00.421Z,99977.02
2022-12-09T04:55:27.431Z,99979.14
2022-12-09T04:57:54.249Z,99985.61
2022-12-09T05:00:21.652Z,99984.92
2022-12-09T05:02:48.314Z,99980.64
2022-12-09T05:05:15.124Z,99976.70
2022-12-09T05:07:42.279Z,99978.41
2022-12-09T05:10:09.623Z,99973.98
2022-12-09T05:12:36.696Z,99981.80
2022-12-09T05:15:04.029Z,99983.38
2022-12-09T05:17:30.629Z,99980.59
2022-12-09T05:19:57.594Z,99981.11
2022-12-09T05:22:24.514Z,99980.21
2022-12-09T05:24:51.373Z,99981.21
2022-12-09T05:27:17.957Z,99986.77
2022-12-09T05:29:44.824Z,99985.05
2022-12-09T05:32:11.715Z,99985.80
2022-12-09T05:34:39.551Z,99986.76
2022-12-09T05:37:06.537Z,99985.19
2022-12-09T05:39:33.295Z,99984.16
2022-12-09T05:41:59.973Z,99987.13
2022-12-09T05:44:26.819Z,99982.73
2022-12-09T05:46:53.657Z,99986.56
2022-12-09T05:49:29.446Z,99989.81
2022-12-09T05:51:56.053Z,99990.00
2022-12-09T05:54:22.765Z,99987.97
2022-12-09T05:56:49.801Z,99982.90
2022-12-09T05:59:16.462Z,99983.52
2022-12-09T06:01:43.403Z,99975.95
2022-12-09T06:04:10.333Z,99972.15
2022-12-09T06:06:37.089Z,99974.15
2022-12-09T06:09:03.843Z,99971.13
2022-12-09T06:11:32.351Z,99970.26
2022-12-09T06:13:59.062Z,99974.00
2022-12-09T06:16:26.416Z,99975.94
2022-12-09T06:18:53.598Z,99976.02
2022-12-09T06:21:20.959Z,99980.16
2022-12-09T06:23:48.881Z,99973.20
2022-12-09T06:26:25.291Z,99972.12
2022-12-09T06:28:53.014Z,99971.26
2022-12-09T06:31:20.662Z,99975.85
2022-12-09T06:33:57.088Z,99975.70
2022-12-09T06:36:26.535Z,99981.17
2022-12-09T06:38:54.084Z,99981.52
2022-12-09T06:41:21.269Z,99978.89
2022-12-09T06:43:48.194Z,99981.64
2022-12-09T06:46:17.236Z,99976.30
2022-12-09T06:48:44.671Z,99974.02
2022-12-09T06:51:11.972Z,99972.89
2022-12-09T06:53:38.617Z,99971.67
2022-12-09T06:56:11.874Z,99970.87
2022-12-09T06:58:41.355Z,99972.20
2022-12-09T07:01:18.319Z,99970.66
2022-12-09T07:03:48.403Z,99971.02
2022-12-09T07:06:27.824Z,99974.13
2022-12-09T07:08:56.463Z,99978.34
2022-12-09T07:11:23.638Z,99978.51
2022-12-09T07:13:51.049Z,99979.58
2022-12-09T07:16:18.596Z,99979.96
2022-12-09T07:18:45.519Z,99974.91
2022-12-09T07:21:18.799Z,99975.21
2022-12-09T07:23:46.620Z,99975.90
2022-12-09T07:26:14.363Z,99979.77
2022-12-09T07:28:42.697Z,99979.05
2022-12-09T07:31:25.243Z,99972.67
2022-12-09T07:33:53.533Z,99974.15
2022-12-09T07:36:22.275Z,99972.39
2022-12-09T07:38:54.516Z,99973.19
2022-12-09T07:41:21.758Z,99974.08
2022-12-09T07:43:48.978Z,99979.85
2022-12-09T07:46:18.124Z,99981.51
2022-12-09T07:48:45.286Z,99980.73
2022-12-09T07:51:12.718Z,99985.50
2022-12-09T07:53:39.900Z,99985.72
2022-12-09T07:56:11.974Z,99987.85
2022-12-09T07:58:38.940Z,99991.84
2022-12-09T08:01:11.554Z,99991.75
2022-12-09T08:03:40.268Z,99994.13
2022-12-09T08:06:07.106Z,99993.20
2022-12-09T08:08:34.675Z,99993.45
2022-12-09T08:11:14.183Z,99994.87
2022-12-09T08:13:43.908Z,99996.99
2022-12-09T08:16:13.385Z,99994.88
2022-12-09T08:18:41.302Z,99996.16
2022-12-09T08:21:11.757Z,99994.44
2022-12-09T08:23:38.977Z,99994.89
2022-12-09T08:26:06.172Z,100000.20
2022-12-09T08:28:33.232Z,100000.20
2022-12-09T08:31:07.237Z,100002.00
2022-12-09T08:33:34.631Z,100001.41
2022-12-09T08:36:02.620Z,100001.40
2022-12-09T08:38:29.518Z,100004.06
2022-12-09T08:40:56.603Z,100003.52
2022-12-09T08:43:23.371Z,99997.98
2022-12-09T08:45:50.139Z,100000.93
2022-12-09T08:48:16.801Z,99999.96
2022-12-09T08:50:43.434Z,100000.89
2022-12-09T08:53:10.086Z,100002.33
2022-12-09T08:55:39.492Z,100006.17
2022-12-09T08:58:06.422Z,100002.07
2022-12-09T09:00:33.085Z,100006.34
2022-12-09T09:03:00.032Z,99997.31
2022-12-09T09:05:27.149Z,99995.55
2022-12-09T09:07:54.216Z,99996.23
2022-12-09T09:10:21.121Z,99995.95
2022-12-09T09:12:48.564Z,99997.34
2022-12-09T09:15:16.001Z,100002.40
2022-12-09T09:17:48.151Z,100004.16
2022-12-09T09:20:18.376Z,100005.76
2022-12-09T09:22:45.197Z,100007.96
2022-12-09T09:25:11.877Z,100011.14
2022-12-09T09:27:39.108Z,100013.58
2022-12-09T09:30:09.420Z,100012.73
2022-12-09T09:32:36.354Z,100009.49
2022-12-09T09:35:03.394Z,100012.66
2022-12-09T09:37:31.635Z,100011.51
2022-12-09T09:39:58.264Z,100013.26
2022-12-09T09:42:34.434Z,100013.36
2022-12-09T09:45:06.816Z,100011.22
2022-12-09T09:47:40.128Z,100012.79
2022-12-09T09:50:08.209Z,100011.43
2022-12-09T09:52:38.855Z,100012.27
2022-12-09T09:55:14.725Z,100009.13
2022-12-09T09:58:13.065Z,100011.64
2022-12-09T10:01:04.241Z,100012.83
2022-12-09T10:03:43.742Z,100007.16
2022-12-09T10:06:35.364Z,100005.91
2022-12-09T10:09:24.993Z,100006.23
2022-12-09T10:12:12.370Z,100005.98
2022-12-09T10:14:54.491Z,100002.42
2022-12-09T10:17:52.195Z,100004.21
2022-12-09T10:20:27.006Z,100001.10
2022-12-09T10:23:00.175Z,99999.14
2022-12-09T10:25:30.180Z,99995.02
2022-12-09T10:28:21.580Z,99992.95
2022-12-09T10:30:53.557Z,99991.64
2022-12-09T10:33:36.450Z,99992.20
2022-12-09T10:36:04.417Z,99990.34
2022-12-09T10:38:35.782Z,99988.20
2022-12-09T10:41:57.116Z,99984.98
2022-12-09T10:44:26.860Z,99984.73
2022-12-09T10:47:04.228Z,99983.02
2022-12-09T10:49:33.236Z,99984.39
2022-12-09T10:52:00.784Z,99981.86
2022-12-09T10:54:36.494Z,99979.00
2022-12-09T10:57:12.637Z,99973.93
2022-12-09T10:59:41.690Z,99975.45
2022-12-09T11:02:08.802Z,99975.48
2022-12-09T11:04:40.041Z,99976.38
2022-12-09T11:07:07.025Z,99973.35
2022-12-09T11:09:36.125Z,99977.02
2022-12-09T11:12:06.611Z,99978.09
2022-12-09T11:14:36.713Z,99977.64
2022-12-09T11:17:20.181Z,99977.30
2022-12-09T11:19:51.668Z,99975.60
2022-12-09T11:22:24.030Z,99972.55
2022-12-09T11:24:56.672Z,99973.67
2022-12-09T11:27:31.112Z,99971.42
2022-12-09T11:30:13.057Z,99972.13
2022-12-09T11:33:02.404Z,99970.52
2022-12-09T11:35:44.892Z,99970.98
2022-12-09T11:38:31.011Z,99964.95
2022-12-09T11:41:40.405Z,99970.71
2022-12-09T11:44:30.192Z,99970.17
2022-12-09T11:47:06.467Z,99974.13
2022-12-09T11:49:54.063Z,99971.64
2022-12-09T11:52:28.490Z,99974.77
2022-12-09T11:55:06.017Z,99974.95
2022-12-09T11:57:44.368Z,99974.26
2022-12-09T12:00:23.059Z,99975.84
2022-12-09T12:03:08.335Z,99974.71
2022-12-09T12:05:43.450Z,99967.11
2022-12-09T12:08:34.979Z,99970.06
2022-12-09T12:11:15.297Z,99975.71
2022-12-09T12:13:46.404Z,99969.29
2022-12-09T12:16:39.748Z,99968.83
2022-12-09T12:19:21.953Z,99968.14
2022-12-09T12:21:54.804Z,99962.01
2022-12-09T12:25:00.273Z,99960.58
2022-12-09T12:27:29.496Z,99960.08
2022-12-09T12:30:01.850Z,99955.31
2022-12-09T12:36:07.657Z,99957.60
2022-12-09T12:39:00.573Z,99955.39
2022-12-09T12:42:02.405Z,99954.84
2022-12-09T12:45:11.234Z,99949.88
2022-12-09T12:47:46.135Z,99951.70
2022-12-09T12:50:20.241Z,99949.73
2022-12-09T12:53:04.259Z,99945.95
2022-12-09T12:56:11.605Z,99939.31
2022-12-09T12:58:37.985Z,99937.63
2022-12-09T13:01:35.881Z,99937.86
2022-12-09T13:04:21.779Z,99936.92
2022-12-09T13:07:09.565Z,99932.78
2022-12-09T13:10:10.375Z,99928.65
2022-12-09T13:13:01.652Z,99926.83
2022-12-09T13:15:40.372Z,99928.30
2022-12-09T13:18:37.506Z,99922.83
2022-12-09T13:21:06.259Z,99924.77
2022-12-09T13:23:48.585Z,99924.70
2022-12-09T13:26:21.094Z,99928.20
2022-12-09T13:29:17.422Z,99930.41
2022-12-09T13:32:08.622Z,99929.96
2022-12-09T13:34:54.297Z,99927.75
2022-12-09T13:37:34.681Z,99924.20
2022-12-09T13:40:01.889Z,99922.72
2022-12-09T13:42:47.600Z,99924.65
2022-12-09T13:45:32.691Z,99922.20
2022-12-09T13:48:16.574Z,99918.63
2022-12-09T13:50:49.762Z,99913.34
2022-12-09T13:53:19.106Z,99908.98
2022-12-09T13:55:56.376Z,99910.73
2022-12-09T13:58:39.566Z,99916.41
2022-12-09T14:01:12.686Z,99910.43
2022-12-09T14:04:00.553Z,99915.31
2022-12-09T14:06:33.151Z,99916.21
2022-12-09T14:09:05.405Z,99910.15
2022-12-09T14:11:37.972Z,99914.37
2022-12-09T14:14:22.887Z,99910.88
2022-12-09T14:16:50.505Z,99905.64
2022-12-09T14:19:26.371Z,99905.85
2022-12-09T14:22:23.927Z,99905.46
2022-12-09T14:24:53.771Z,99907.73
2022-12-09T14:27:27.772Z,99902.74
2022-12-09T14:29:59.129Z,99901.61
2022-12-09T14:32:29.053Z,99902.96
2022-12-09T14:35:02.271Z,99906.45
2022-12-09T14:37:35.965Z,99909.59
2022-12-09T14:40:41.385Z,99910.89
2022-12-09T14:43:26.990Z,99912.52
2022-12-09T14:46:00.791Z,99919.52
2022-12-09T14:48:32.263Z,99920.89
2022-12-09T14:51:21.671Z,99924.80
2022-12-09T14:54:01.772Z,99926.73
2022-12-09T14:56:30.777Z,99922.65
2022-12-09T14:59:04.089Z,99921.47
2022-12-09T15:01:30.670Z,99922.24
2022-12-09T15:03:59.684Z,99927.31
2022-12-09T15:06:27.006Z,99926.33
2022-12-09T15:08:56.058Z,99931.20
2022-12-09T15:11:35.268Z,99925.32
2022-12-09T15:14:25.627Z,99927.75
2022-12-09T15:16:53.145Z,99923.40
2022-12-09T15:19:58.009Z,99924.14
2022-12-09T15:22:21.571Z,99929.16
2022-12-09T15:24:50.454Z,99929.84
2022-12-09T15:27:20.126Z,99923.10
2022-12-09T15:29:46.776Z,99924.85
2022-12-09T15:32:22.467Z,99925.43
2022-12-09T15:34:49.005Z,99925.86
2022-12-09T15:37:17.725Z,99933.44
2022-12-09T15:40:09.439Z,99937.79
2022-12-09T15:42:40.177Z,99940.27
2022-12-09T15:45:21.351Z,99946.35
2022-12-09T15:47:55.961Z,99948.95
2022-12-09T15:50:51.756Z,99949.95
2022-12-09T15:53:27.304Z,99953.75
2022-12-09T15:55:58.231Z,99953.13
2022-12-09T15:58:30.258Z,99958.85
2022-12-09T16:00:57.427Z,99959.45
2022-12-09T16:03:31.042Z,99961.46
2022-12-09T16:06:01.832Z,99961.60
2022-12-09T16:08:35.143Z,99967.48
2022-12-09T16:11:02.092Z,99968.02
2022-12-09T16:13:29.656Z,99969.34
2022-12-09T16:15:59.621Z,99966.43
2022-12-09T16:18:34.022Z,99967.30
2022-12-09T16:21:16.028Z,99971.09
2022-12-09T16:23:45.418Z,99975.21
2022-12-09T16:26:21.233Z,99978.59
2022-12-09T16:28:59.601Z,99979.50
2022-12-09T16:31:26.954Z,99980.56
2022-12-09T16:33:53.938Z,99979.09
2022-12-09T16:36:27.212Z,99977.48
2022-12-09T16:39:09.110Z,99972.52
2022-12-09T16:41:51.051Z,99974.81
2022-12-09T16:44:32.441Z,99972.33
2022-12-09T16:47:20.913Z,99973.00
2022-12-09T16:49:48.684Z,99976.76
2022-12-09T16:52:19.491Z,99976.16
2022-12-09T16:54:47.739Z,99976.21
2022-12-09T16:57:16.204Z,99975.29
2022-12-09T16:59:43.739Z,99973.96
2022-12-09T17:02:16.637Z,99972.31
2022-12-09T17:04:43.198Z,99970.98
2022-12-09T17:07:09.804Z,99973.09
2022-12-09T17:09:36.273Z,99970.37
2022-12-09T17:12:02.694Z,99971.32
2022-12-09T17:14:29.088Z,99973.00
2022-12-09T17:16:55.661Z,99972.69
2022-12-09T17:19:22.760Z,99975.98
2022-12-09T17:21:49.304Z,99976.77
2022-12-09T17:24:16.042Z,99976.23
2022-12-09T17:26:42.428Z,99971.08
2022-12-09T17:29:08.847Z,99975.14
2022-12-09T17:31:35.226Z,99978.06
2022-12-09T17:34:01.612Z,99978.21
2022-12-09T17:36:28.037Z,99976.55
2022-12-09T17:38:54.414Z,99976.72
2022-12-09T17:41:23.600Z,99975.84
2022-12-09T17:43:51.031Z,99975.02
2022-12-09T17:46:17.873Z,99980.83
2022-12-09T17:48:44.382Z,99981.86
2022-12-09T17:51:14.353Z,99984.50
2022-12-09T17:53:42.398Z,99977.43
2022-12-09T17:56:11.453Z,99983.63
2022-12-09T17:58:38.624Z,99988.37
2022-12-09T18:01:11.827Z,99988.61
2022-12-09T18:03:55.435Z,99993.90
2022-12-09T18:06:22.957Z,99997.33
2022-12-09T18:08:49.302Z,99996.75
2022-12-09T18:11:15.796Z,99999.38
2022-12-09T18:13:42.257Z,100002.34
2022-12-09T18:16:12.883Z,100006.64
2022-12-09T18:18:40.115Z,100007.98
2022-12-09T18:21:12.045Z,100009.08
2022-12-09T18:23:41.839Z,100007.52
2022-12-09T18:26:09.928Z,100006.01
2022-12-09T18:28:37.036Z,100003.92
2022-12-09T18:31:13.054Z,100001.13
2022-12-09T18:33:40.277Z,100006.03
2022-12-09T18:36:10.319Z,100002.48
2022-12-09T18:38:37.701Z,100003.60
2022-12-09T18:41:04.295Z,100006.77
2022-12-09T18:43:37.073Z,100004.20
2022-12-09T18:46:09.394Z,100005.34
2022-12-09T18:48:36.695Z,100006.21
2022-12-09T18:51:03.456Z,100003.75
2022-12-09T18:53:30.394Z,100005.86
2022-12-09T18:55:56.778Z,100007.14
2022-12-09T18:58:42.494Z,100007.41
2022-12-09T19:01:18.073Z,100007.14
2022-12-09T19:03:45.212Z,100012.03
2022-12-09T19:06:29.598Z,100017.13
2022-12-09T19:08:58.947Z,100016.58
2022-12-09T19:11:28.542Z,100018.25
2022-12-09T19:13:55.888Z,100017.18
2022-12-09T19:16:23.565Z,100021.92
2022-12-09T19:18:52.501Z,100022.80
2022-12-09T19:21:20.398Z,100025.60
2022-12-09T19:23:47.520Z,100025.10
2022-12-09T19:26:16.540Z,100020.57
2022-12-09T19:28:58.360Z,100023.10
2022-12-09T19:31:28.512Z,100028.32
2022-12-09T19:33:59.981Z,100030.23
2022-12-09T19:36:29.066Z,100029.61
2022-12-09T19:38:57.503Z,100029.87
2022-12-09T19:41:23.993Z,100028.83
2022-12-09T19:43:57.724Z,100028.61
2022-12-09T19:46:26.381Z,100031.63
2022-12-09T19:48:53.619Z,100029.66
2022-12-09T19:51:20.863Z,100035.50
2022-12-09T19:53:48.621Z,100035.75
2022-12-09T19:56:18.717Z,100034.17
2022-12-09T19:58:46.393Z,100032.84
2022-12-09T20:01:17.062Z,100034.38
2022-12-09T20:03:45.306Z,100033.67
2022-12-09T20:06:15.909Z,100035.75
2022-12-09T20:08:43.208Z,100036.42
2022-12-09T20:11:21.369Z,100037.27
2022-12-09T20:13:48.218Z,100038.13
2022-12-09T20:16:17.738Z,100033.81
2022-12-09T20:18:45.456Z,100034.67
2022-12-09T20:21:13.411Z,100037.75
2022-12-09T20:23:41.597Z,100035.50
2022-12-09T20:26:12.510Z,100039.98
2022-12-09T20:28:40.743Z,100042.10
2022-12-09T20:31:12.536Z,100043.88
2022-12-09T20:33:40.189Z,100048.11
2022-12-09T20:36:12.584Z,100049.89
2022-12-09T20:38:39.771Z,100051.60
2022-12-09T20:41:16.498Z,100053.45
2022-12-09T20:43:45.566Z,100049.13
2022-12-09T20:46:22.340Z,100051.24
2022-12-09T20:48:50.099Z,100052.30
2022-12-09T20:51:21.787Z,100054.40
2022-12-09T20:53:49.333Z,100057.48
2022-12-09T20:56:18.046Z,100055.89
2022-12-09T20:58:45.972Z,100058.25
2022-12-09T21:01:27.113Z,100060.55
2022-12-09T21:03:55.369Z,100058.74
2022-12-09T21:06:24.452Z,100061.64
2022-12-09T21:08:51.456Z,100058.84
2022-12-09T21:11:23.222Z,100058.48
2022-12-09T21:13:52.574Z,100060.80
2022-12-09T21:16:22.085Z,100058.17
2022-12-09T21:18:50.733Z,100066.80
2022-12-09T21:21:18.880Z,100066.37
2022-12-09T21:23:45.916Z,100068.27
2022-12-09T21:26:16.799Z,100071.35
2022-12-09T21:28:44.839Z,100067.17
2022-12-09T21:31:20.316Z,100069.25
2022-12-09T21:33:48.519Z,100069.49
2022-12-09T21:36:18.357Z,100074.65
2022-12-09T21:38:44.967Z,100073.65
2022-12-09T21:41:14.882Z,100076.02
2022-12-09T21:43:41.938Z,100079.52
2022-12-09T21:46:11.742Z,100080.70
2022-12-09T21:48:39.239Z,100082.98
2022-12-09T21:51:06.110Z,100082.73
2022-12-09T21:53:33.246Z,100087.45
2022-12-09T21:56:08.015Z,100089.39
2022-12-09T21:58:35.653Z,100092.92
2022-12-09T22:01:11.804Z,100088.61
2022-12-09T22:03:38.852Z,100089.67
2022-12-09T22:06:06.467Z,100093.96
2022-12-09T22:08:32.989Z,100098.16
2022-12-09T22:10:59.503Z,100095.59
2022-12-09T22:13:26.919Z,100097.42
2022-12-09T22:15:53.806Z,100095.58
2022-12-09T22:18:20.271Z,100098.71
2022-12-09T22:21:23.204Z,100099.63
2022-12-09T22:23:33.481Z,100104.41
2022-12-09T22:26:00.022Z,100107.05
2022-12-09T22:28:28.292Z,100103.63
2022-12-09T22:30:54.733Z,100107.40
2022-12-09T22:33:21.217Z,100106.08
2022-12-09T22:35:47.618Z,100104.55
2022-12-09T22:38:14.844Z,100103.16
2022-12-09T22:40:41.694Z,100100.49
2022-12-09T22:43:08.137Z,100103.92
2022-12-09T22:45:35.929Z,100100.02
2022-12-09T22:48:02.818Z,100103.27
2022-12-09T22:50:29.313Z,100102.36
2022-12-09T22:52:56.010Z,100100.14
2022-12-09T22:55:22.427Z,100096.70
2022-12-09T22:57:48.853Z,100100.29
2022-12-09T23:00:15.604Z,100102.84
2022-12-09T23:02:42.108Z,100104.09
2022-12-09T23:05:08.790Z,100102.09
2022-12-09T23:07:35.758Z,100101.05
2022-12-09T23:10:02.792Z,100102.45
2022-12-09T23:12:29.225Z,100099.63
2022-12-09T23:14:55.618Z,100099.79
2022-12-09T23:17:21.988Z,100098.82
2022-12-09T23:19:48.423Z,100098.02
2022-12-09T23:22:14.789Z,100099.19
2022-12-09T23:24:44.039Z,100102.35
2022-12-09T23:27:10.485Z,100101.82
2022-12-09T23:29:37.907Z,100104.83
2022-12-09T23:32:04.460Z,100100.00
2022-12-09T23:34:30.808Z,100103.34
2022-12-09T23:36:57.198Z,100102.94
2022-12-09T23:39:23.582Z,100105.59
2022-12-09T23:41:49.928Z,100104.38
2022-12-09T23:44:18.366Z,100103.98
2022-12-09T23:46:44.956Z,100107.36
2022-12-09T23:49:11.744Z,100106.68
2022-12-09T23:51:41.029Z,100103.54
2022-12-09T23:54:08.796Z,100103.80
2022-12-09T23:56:43.973Z,100106.42
2022-12-09T23:59:12.733Z,100109.27
